This is the latest recevied weather packets stored in our database for station/object DB8NZ-11. If no packets are shown the sender has not sent any weather packets the latest 10 day(s).
| Time | Temp. | Humidity | Pressure | Rain* | Wind** | Luminosity | Snow |
|---|---|---|---|---|---|---|---|
| 1777819839 | 28.33° C | 25% | 1017.3 hPa | - | - | - | - |
| 1777818939 | 28.89° C | 24% | 1017.5 hPa | - | - | - | - |
| 1777818039 | 29.44° C | 23% | 1017.6 hPa | - | - | - | - |
| 1777817139 | 29.44° C | 24% | 1017.8 hPa | - | - | - | - |
| 1777816239 | 30.56° C | 22% | 1017.9 hPa | - | - | - | - |
| 1777815339 | 31.67° C | 21% | 1018 hPa | - | - | - | - |
| 1777814439 | 30.56° C | 22% | 1018.2 hPa | - | - | - | - |
| 1777813539 | 31.11° C | 21% | 1018.3 hPa | - | - | - | - |
| 1777812639 | 30.56° C | 21% | 1018.4 hPa | - | - | - | - |
| 1777811739 | 31.11° C | 21% | 1018.4 hPa | - | - | - | - |
| 1777810839 | 30.56° C | 21% | 1018.7 hPa | - | - | - | - |
| 1777809938 | 31.11° C | 22% | 1018.8 hPa | - | - | - | - |
| 1777809038 | 30° C | 22% | 1018.9 hPa | - | - | - | - |
| 1777808138 | 30.56° C | 22% | 1019 hPa | - | - | - | - |
| 1777807628 | 30.56° C | 22% | 1019.1 hPa | - | - | - | - |
| 1777806728 | 30° C | 23% | 1019.3 hPa | - | - | - | - |
| 1777805828 | 30° C | 24% | 1019.4 hPa | - | - | - | - |
| 1777804928 | 29.44° C | 26% | 1019.6 hPa | - | - | - | - |
| 1777804028 | 29.44° C | 24% | 1019.7 hPa | - | - | - | - |
| 1777803128 | 30° C | 22% | 1019.9 hPa | - | - | - | - |
| 1777802228 | 29.44° C | 24% | 1020.1 hPa | - | - | - | - |
| 1777801328 | 28.89° C | 26% | 1020.3 hPa | - | - | - | - |
| 1777800428 | 27.22° C | 30% | 1020.5 hPa | - | - | - | - |
| 1777799527 | 26.11° C | 32% | 1020.6 hPa | - | - | - | - |
| 1777798627 | 25.56° C | 34% | 1020.7 hPa | - | - | - | - |
* Rain since midnight (hover to see other rain measurements)
** Current wind speed in m/s (hover to see current wind gust speed)